カトマンズ の空港の天気 - METARとTAF

トリブバン国際空港 ( VNKT / KTM ) - ネパール カトマンズ
飛行場実況気象(Metar)
観測時間01/18 15:35 NPT (01/18 09:50 UTC)
風向・風速西北西 3m/s
視程6000m
天気現象
少しの雲 雲底高度 460m
気温19℃
湿度43%
気圧1015hPa
METARVNKT 180950Z 29005KT 6000 FEW015 19/06 Q1015 NOSIG
過去の天気等 Google飛行場航空写真 Wunderground天気予報

過去48時間のMETAR

飛行場予報(TAF)
発表時間: 1/18 04:45 NPT (1/17 23:00 UTC)
予報対象時間: 18日5時 NPT ~ 19日5時 NPT
風向・風速静穏
視程3,000m
天気現象もや
少しの雲 雲底高度 300m
18日5時 NPT から 確率 40% で
視程800m
天気現象
18日9時 NPT ~ 18日10時 NPT に徐々に
風向・風速東南東 2m/s
視程4,000m
18日11時 NPT ~ 18日12時 NPT に徐々に
風向・風速南西 4m/s
視程7,000m
少しの雲 雲底高度 610m
18日19時 NPT ~ 18日20時 NPT に徐々に
風向・風速静穏
視程5,000m
天気現象もや
少しの雲 雲底高度 460m
TAF VNKT 172300Z 1800/1824 00000KT 3000 BR FEW010
PROB40 1800/1803 0800 FG
BECMG 1804/1805 11003KT 4000 BR/HZ FEW015
BECMG 1806/1807 22008KT 7000 FEW020
BECMG 1814/1815 00000KT 5000 BR FEW015